Terminal Aerodrome Forecast
Issued by NWS

Home | Current Version | Previous Version | Text Only | Print | Product List | Glossary Off
Versions: 1 2 3 4 5 6 7 8 9 10 11 12 13 14 15 16 17 18 19

000
FTUS42 KMHX 270330 AAA
TAFPGV
TAF AMD
KPGV 270330Z 2704/2724 35004KT P6SM SCT008 OVC035
     FM270500 00000KT 3SM BR SCT004
     FM271400 34004KT P6SM SKC
      AMD LTD TO CLD VIS AND WIND=

USA.gov is the U.S. government's official web portal to all federal, state and local government web resources and services.